sensor_id;sensor_type;location;lat;lon;timestamp;P1;durP1;ratioP1;P2;durP2;ratioP2
67130;SDS011;54051;53.464;49.532;2023-07-31T00:00:35;4.20;;;2.20;;
67130;SDS011;54051;53.464;49.532;2023-07-31T00:03:01;4.97;;;2.10;;
67130;SDS011;54051;53.464;49.532;2023-07-31T00:05:27;4.30;;;2.23;;
67130;SDS011;54051;53.464;49.532;2023-07-31T00:07:53;4.63;;;2.10;;
67130;SDS011;54051;53.464;49.532;2023-07-31T00:10:20;4.10;;;2.05;;
67130;SDS011;54051;53.464;49.532;2023-07-31T00:12:47;4.55;;;2.15;;
67130;SDS011;54051;53.464;49.532;2023-07-31T00:15:13;4.35;;;2.22;;
67130;SDS011;54051;53.464;49.532;2023-07-31T00:17:40;4.90;;;2.30;;
67130;SDS011;54051;53.464;49.532;2023-07-31T00:20:06;4.57;;;2.30;;
67130;SDS011;54051;53.464;49.532;2023-07-31T00:22:32;4.60;;;2.38;;
67130;SDS011;54051;53.464;49.532;2023-07-31T00:24:58;5.30;;;2.40;;
67130;SDS011;54051;53.464;49.532;2023-07-31T00:27:25;4.40;;;2.70;;
67130;SDS011;54051;53.464;49.532;2023-07-31T00:29:51;4.20;;;2.30;;
67130;SDS011;54051;53.464;49.532;2023-07-31T00:32:17;5.80;;;2.50;;
67130;SDS011;54051;53.464;49.532;2023-07-31T00:34:43;5.83;;;2.33;;
67130;SDS011;54051;53.464;49.532;2023-07-31T00:37:09;4.68;;;2.40;;
67130;SDS011;54051;53.464;49.532;2023-07-31T00:39:35;4.90;;;2.40;;
67130;SDS011;54051;53.464;49.532;2023-07-31T00:42:01;4.78;;;2.40;;
67130;SDS011;54051;53.464;49.532;2023-07-31T00:44:28;4.40;;;2.10;;
67130;SDS011;54051;53.464;49.532;2023-07-31T00:46:54;4.67;;;2.27;;
67130;SDS011;54051;53.464;49.532;2023-07-31T00:49:22;5.13;;;2.45;;
67130;SDS011;54051;53.464;49.532;2023-07-31T00:51:48;5.47;;;2.60;;
67130;SDS011;54051;53.464;49.532;2023-07-31T00:54:14;5.35;;;2.35;;
67130;SDS011;54051;53.464;49.532;2023-07-31T00:56:40;4.57;;;2.20;;
67130;SDS011;54051;53.464;49.532;2023-07-31T01:01:33;5.05;;;2.20;;
67130;SDS011;54051;53.464;49.532;2023-07-31T01:03:59;4.80;;;2.30;;
67130;SDS011;54051;53.464;49.532;2023-07-31T01:06:31;4.15;;;2.10;;
67130;SDS011;54051;53.464;49.532;2023-07-31T01:09:07;4.57;;;2.10;;
67130;SDS011;54051;53.464;49.532;2023-07-31T01:11:56;5.55;;;2.40;;
67130;SDS011;54051;53.464;49.532;2023-07-31T01:14:25;4.82;;;2.13;;
67130;SDS011;54051;53.464;49.532;2023-07-31T01:16:51;4.90;;;2.27;;
67130;SDS011;54051;53.464;49.532;2023-07-31T01:19:17;4.60;;;2.30;;
67130;SDS011;54051;53.464;49.532;2023-07-31T01:21:53;4.47;;;2.28;;
67130;SDS011;54051;53.464;49.532;2023-07-31T01:24:29;5.00;;;2.00;;
67130;SDS011;54051;53.464;49.532;2023-07-31T01:27:17;4.13;;;2.20;;
67130;SDS011;54051;53.464;49.532;2023-07-31T01:29:59;4.85;;;2.15;;
67130;SDS011;54051;53.464;49.532;2023-07-31T01:32:36;5.47;;;2.20;;
67130;SDS011;54051;53.464;49.532;2023-07-31T01:35:06;4.60;;;2.20;;
67130;SDS011;54051;53.464;49.532;2023-07-31T01:37:33;4.45;;;2.08;;
67130;SDS011;54051;53.464;49.532;2023-07-31T01:39:59;4.10;;;2.10;;
67130;SDS011;54051;53.464;49.532;2023-07-31T01:42:25;4.40;;;2.00;;
67130;SDS011;54051;53.464;49.532;2023-07-31T01:44:51;5.30;;;2.10;;
67130;SDS011;54051;53.464;49.532;2023-07-31T01:47:17;5.33;;;2.13;;
67130;SDS011;54051;53.464;49.532;2023-07-31T01:49:43;5.20;;;2.17;;
67130;SDS011;54051;53.464;49.532;2023-07-31T01:52:09;3.67;;;1.90;;
67130;SDS011;54051;53.464;49.532;2023-07-31T01:54:35;4.17;;;2.00;;
67130;SDS011;54051;53.464;49.532;2023-07-31T01:57:02;5.07;;;2.00;;
67130;SDS011;54051;53.464;49.532;2023-07-31T01:59:28;5.50;;;2.13;;
67130;SDS011;54051;53.464;49.532;2023-07-31T02:01:54;4.63;;;2.10;;
67130;SDS011;54051;53.464;49.532;2023-07-31T02:04:20;4.87;;;2.10;;
67130;SDS011;54051;53.464;49.532;2023-07-31T02:06:46;6.07;;;2.10;;
67130;SDS011;54051;53.464;49.532;2023-07-31T02:09:12;4.88;;;2.00;;
67130;SDS011;54051;53.464;49.532;2023-07-31T02:11:38;4.27;;;2.00;;
67130;SDS011;54051;53.464;49.532;2023-07-31T02:14:04;5.50;;;2.13;;
67130;SDS011;54051;53.464;49.532;2023-07-31T02:16:30;4.77;;;2.20;;
67130;SDS011;54051;53.464;49.532;2023-07-31T02:18:55;4.37;;;2.00;;
67130;SDS011;54051;53.464;49.532;2023-07-31T02:21:21;5.20;;;2.13;;
67130;SDS011;54051;53.464;49.532;2023-07-31T02:23:47;4.43;;;2.07;;
67130;SDS011;54051;53.464;49.532;2023-07-31T02:26:13;5.37;;;2.10;;
67130;SDS011;54051;53.464;49.532;2023-07-31T02:28:39;4.40;;;2.03;;
67130;SDS011;54051;53.464;49.532;2023-07-31T02:31:08;3.92;;;1.88;;
67130;SDS011;54051;53.464;49.532;2023-07-31T02:33:34;3.90;;;1.90;;
67130;SDS011;54051;53.464;49.532;2023-07-31T02:36:00;4.20;;;2.00;;
67130;SDS011;54051;53.464;49.532;2023-07-31T02:38:26;4.67;;;1.80;;
67130;SDS011;54051;53.464;49.532;2023-07-31T02:40:52;5.97;;;2.10;;
67130;SDS011;54051;53.464;49.532;2023-07-31T02:43:18;4.10;;;2.13;;
67130;SDS011;54051;53.464;49.532;2023-07-31T02:45:44;6.37;;;2.40;;
67130;SDS011;54051;53.464;49.532;2023-07-31T02:48:10;4.70;;;2.00;;
67130;SDS011;54051;53.464;49.532;2023-07-31T02:50:36;4.93;;;2.20;;
67130;SDS011;54051;53.464;49.532;2023-07-31T02:53:02;4.97;;;2.10;;
67130;SDS011;54051;53.464;49.532;2023-07-31T02:55:28;5.23;;;2.07;;
67130;SDS011;54051;53.464;49.532;2023-07-31T02:57:54;5.97;;;2.00;;
67130;SDS011;54051;53.464;49.532;2023-07-31T03:00:20;4.87;;;2.23;;
67130;SDS011;54051;53.464;49.532;2023-07-31T03:02:46;5.50;;;2.30;;
67130;SDS011;54051;53.464;49.532;2023-07-31T03:05:12;4.30;;;2.13;;
67130;SDS011;54051;53.464;49.532;2023-07-31T03:07:37;4.53;;;2.40;;
67130;SDS011;54051;53.464;49.532;2023-07-31T03:10:03;4.53;;;2.30;;
67130;SDS011;54051;53.464;49.532;2023-07-31T03:12:30;4.53;;;2.22;;
67130;SDS011;54051;53.464;49.532;2023-07-31T03:14:56;7.37;;;2.20;;
67130;SDS011;54051;53.464;49.532;2023-07-31T03:17:22;4.17;;;2.17;;
67130;SDS011;54051;53.464;49.532;2023-07-31T03:19:48;5.00;;;2.10;;
67130;SDS011;54051;53.464;49.532;2023-07-31T03:22:17;5.68;;;2.35;;
67130;SDS011;54051;53.464;49.532;2023-07-31T03:24:43;4.20;;;2.20;;
67130;SDS011;54051;53.464;49.532;2023-07-31T03:27:09;4.75;;;2.55;;
67130;SDS011;54051;53.464;49.532;2023-07-31T03:29:35;4.73;;;2.30;;
67130;SDS011;54051;53.464;49.532;2023-07-31T03:32:01;5.23;;;2.30;;
67130;SDS011;54051;53.464;49.532;2023-07-31T03:34:27;4.57;;;2.37;;
67130;SDS011;54051;53.464;49.532;2023-07-31T03:36:53;4.80;;;2.20;;
67130;SDS011;54051;53.464;49.532;2023-07-31T03:39:19;4.80;;;2.37;;
67130;SDS011;54051;53.464;49.532;2023-07-31T03:41:45;4.60;;;2.13;;
67130;SDS011;54051;53.464;49.532;2023-07-31T03:44:11;5.70;;;2.30;;
67130;SDS011;54051;53.464;49.532;2023-07-31T03:46:37;4.10;;;2.10;;
67130;SDS011;54051;53.464;49.532;2023-07-31T03:49:02;5.77;;;2.17;;
67130;SDS011;54051;53.464;49.532;2023-07-31T03:51:28;4.10;;;2.00;;
67130;SDS011;54051;53.464;49.532;2023-07-31T03:53:54;5.83;;;2.30;;
67130;SDS011;54051;53.464;49.532;2023-07-31T03:56:20;6.10;;;2.13;;
67130;SDS011;54051;53.464;49.532;2023-07-31T03:58:46;4.53;;;2.17;;
67130;SDS011;54051;53.464;49.532;2023-07-31T04:01:13;4.10;;;2.03;;
67130;SDS011;54051;53.464;49.532;2023-07-31T04:03:38;5.20;;;2.30;;
67130;SDS011;54051;53.464;49.532;2023-07-31T04:06:04;4.60;;;2.23;;
67130;SDS011;54051;53.464;49.532;2023-07-31T04:08:32;4.88;;;2.05;;
67130;SDS011;54051;53.464;49.532;2023-07-31T04:10:58;5.17;;;2.30;;
67130;SDS011;54051;53.464;49.532;2023-07-31T04:13:24;4.88;;;2.30;;
67130;SDS011;54051;53.464;49.532;2023-07-31T04:15:53;4.15;;;2.22;;
67130;SDS011;54051;53.464;49.532;2023-07-31T04:20:45;5.38;;;1.92;;
67130;SDS011;54051;53.464;49.532;2023-07-31T04:23:11;3.95;;;2.00;;
67130;SDS011;54051;53.464;49.532;2023-07-31T04:25:37;4.53;;;2.08;;
67130;SDS011;54051;53.464;49.532;2023-07-31T04:28:03;4.68;;;2.15;;
67130;SDS011;54051;53.464;49.532;2023-07-31T04:30:30;4.07;;;2.13;;
67130;SDS011;54051;53.464;49.532;2023-07-31T04:32:56;4.32;;;2.17;;
67130;SDS011;54051;53.464;49.532;2023-07-31T04:35:22;4.23;;;2.10;;
67130;SDS011;54051;53.464;49.532;2023-07-31T04:37:48;5.07;;;2.07;;
67130;SDS011;54051;53.464;49.532;2023-07-31T04:42:43;4.40;;;1.90;;
67130;SDS011;54051;53.464;49.532;2023-07-31T04:45:09;6.20;;;2.40;;
67130;SDS011;54051;53.464;49.532;2023-07-31T04:47:35;4.85;;;1.95;;
67130;SDS011;54051;53.464;49.532;2023-07-31T04:50:01;4.70;;;2.10;;
67130;SDS011;54051;53.464;49.532;2023-07-31T04:52:27;4.10;;;1.93;;
67130;SDS011;54051;53.464;49.532;2023-07-31T04:54:53;4.93;;;1.95;;
67130;SDS011;54051;53.464;49.532;2023-07-31T04:57:19;4.00;;;2.10;;
67130;SDS011;54051;53.464;49.532;2023-07-31T04:59:45;7.22;;;2.50;;
67130;SDS011;54051;53.464;49.532;2023-07-31T05:02:11;5.90;;;2.30;;
67130;SDS011;54051;53.464;49.532;2023-07-31T05:04:39;5.32;;;2.33;;
67130;SDS011;54051;53.464;49.532;2023-07-31T05:07:04;5.55;;;2.28;;
67130;SDS011;54051;53.464;49.532;2023-07-31T05:09:30;4.10;;;2.30;;
67130;SDS011;54051;53.464;49.532;2023-07-31T05:11:57;5.60;;;2.13;;
67130;SDS011;54051;53.464;49.532;2023-07-31T05:14:22;4.50;;;2.20;;
67130;SDS011;54051;53.464;49.532;2023-07-31T05:16:48;3.78;;;1.95;;
67130;SDS011;54051;53.464;49.532;2023-07-31T05:19:14;4.83;;;2.30;;
67130;SDS011;54051;53.464;49.532;2023-07-31T05:21:40;4.23;;;2.10;;
67130;SDS011;54051;53.464;49.532;2023-07-31T05:24:06;4.22;;;2.20;;
67130;SDS011;54051;53.464;49.532;2023-07-31T05:26:32;4.95;;;2.08;;
67130;SDS011;54051;53.464;49.532;2023-07-31T05:28:58;4.87;;;2.20;;
67130;SDS011;54051;53.464;49.532;2023-07-31T05:31:24;5.15;;;2.30;;
67130;SDS011;54051;53.464;49.532;2023-07-31T05:33:50;3.70;;;1.92;;
67130;SDS011;54051;53.464;49.532;2023-07-31T05:36:16;5.13;;;2.30;;
67130;SDS011;54051;53.464;49.532;2023-07-31T05:38:43;4.72;;;1.98;;
67130;SDS011;54051;53.464;49.532;2023-07-31T05:41:12;4.10;;;2.00;;
67130;SDS011;54051;53.464;49.532;2023-07-31T05:43:38;5.43;;;2.30;;
67130;SDS011;54051;53.464;49.532;2023-07-31T05:46:04;5.25;;;2.10;;
67130;SDS011;54051;53.464;49.532;2023-07-31T05:48:32;3.92;;;2.10;;
67130;SDS011;54051;53.464;49.532;2023-07-31T05:50:59;4.75;;;2.17;;
67130;SDS011;54051;53.464;49.532;2023-07-31T05:53:25;5.15;;;2.13;;
67130;SDS011;54051;53.464;49.532;2023-07-31T05:55:51;4.72;;;2.17;;
67130;SDS011;54051;53.464;49.532;2023-07-31T05:58:17;4.82;;;2.30;;
67130;SDS011;54051;53.464;49.532;2023-07-31T06:00:43;3.93;;;2.00;;
67130;SDS011;54051;53.464;49.532;2023-07-31T06:03:09;4.55;;;2.20;;
67130;SDS011;54051;53.464;49.532;2023-07-31T06:05:35;4.55;;;2.10;;
67130;SDS011;54051;53.464;49.532;2023-07-31T06:08:01;5.15;;;2.20;;
67130;SDS011;54051;53.464;49.532;2023-07-31T06:10:27;5.07;;;2.10;;
67130;SDS011;54051;53.464;49.532;2023-07-31T06:12:53;3.90;;;2.05;;
67130;SDS011;54051;53.464;49.532;2023-07-31T06:15:20;4.25;;;2.10;;
67130;SDS011;54051;53.464;49.532;2023-07-31T06:17:46;4.15;;;1.80;;
67130;SDS011;54051;53.464;49.532;2023-07-31T06:20:12;4.95;;;2.03;;
67130;SDS011;54051;53.464;49.532;2023-07-31T06:22:37;4.87;;;2.10;;
67130;SDS011;54051;53.464;49.532;2023-07-31T06:25:03;3.70;;;2.00;;
67130;SDS011;54051;53.464;49.532;2023-07-31T06:27:30;4.68;;;2.30;;
67130;SDS011;54051;53.464;49.532;2023-07-31T06:29:56;4.00;;;2.03;;
67130;SDS011;54051;53.464;49.532;2023-07-31T06:32:23;4.03;;;2.20;;
67130;SDS011;54051;53.464;49.532;2023-07-31T06:34:49;4.85;;;2.20;;
67130;SDS011;54051;53.464;49.532;2023-07-31T06:37:14;4.53;;;2.20;;
67130;SDS011;54051;53.464;49.532;2023-07-31T06:39:41;4.05;;;2.17;;
67130;SDS011;54051;53.464;49.532;2023-07-31T06:42:08;5.47;;;2.15;;
67130;SDS011;54051;53.464;49.532;2023-07-31T06:44:34;4.07;;;2.10;;
67130;SDS011;54051;53.464;49.532;2023-07-31T06:47:00;4.65;;;2.20;;
67130;SDS011;54051;53.464;49.532;2023-07-31T06:49:26;4.30;;;2.00;;
67130;SDS011;54051;53.464;49.532;2023-07-31T06:51:52;4.72;;;2.22;;
67130;SDS011;54051;53.464;49.532;2023-07-31T06:54:18;4.57;;;2.30;;
67130;SDS011;54051;53.464;49.532;2023-07-31T06:56:44;4.25;;;2.10;;
67130;SDS011;54051;53.464;49.532;2023-07-31T06:59:10;6.20;;;2.60;;
67130;SDS011;54051;53.464;49.532;2023-07-31T07:01:36;5.30;;;2.80;;
67130;SDS011;54051;53.464;49.532;2023-07-31T07:04:02;4.13;;;2.30;;
67130;SDS011;54051;53.464;49.532;2023-07-31T07:06:28;5.25;;;2.60;;
67130;SDS011;54051;53.464;49.532;2023-07-31T07:08:54;5.80;;;2.77;;
67130;SDS011;54051;53.464;49.532;2023-07-31T07:11:20;4.60;;;2.37;;
67130;SDS011;54051;53.464;49.532;2023-07-31T07:13:46;4.60;;;2.50;;
67130;SDS011;54051;53.464;49.532;2023-07-31T07:16:12;4.93;;;2.40;;
67130;SDS011;54051;53.464;49.532;2023-07-31T07:18:38;4.70;;;2.42;;
67130;SDS011;54051;53.464;49.532;2023-07-31T07:21:03;5.63;;;3.15;;
67130;SDS011;54051;53.464;49.532;2023-07-31T07:23:29;6.03;;;3.08;;
67130;SDS011;54051;53.464;49.532;2023-07-31T07:25:55;5.13;;;2.95;;
67130;SDS011;54051;53.464;49.532;2023-07-31T07:28:21;6.63;;;3.17;;
67130;SDS011;54051;53.464;49.532;2023-07-31T07:33:18;5.78;;;2.45;;
67130;SDS011;54051;53.464;49.532;2023-07-31T07:35:44;5.05;;;2.70;;
67130;SDS011;54051;53.464;49.532;2023-07-31T07:38:10;4.33;;;2.60;;
67130;SDS011;54051;53.464;49.532;2023-07-31T07:40:40;5.20;;;2.90;;
67130;SDS011;54051;53.464;49.532;2023-07-31T07:43:06;4.90;;;2.80;;
67130;SDS011;54051;53.464;49.532;2023-07-31T07:45:32;5.55;;;2.70;;
67130;SDS011;54051;53.464;49.532;2023-07-31T07:47:58;6.50;;;2.83;;
67130;SDS011;54051;53.464;49.532;2023-07-31T07:50:24;4.75;;;2.90;;
67130;SDS011;54051;53.464;49.532;2023-07-31T07:52:50;5.13;;;2.75;;
67130;SDS011;54051;53.464;49.532;2023-07-31T07:55:16;5.43;;;2.80;;
67130;SDS011;54051;53.464;49.532;2023-07-31T07:57:42;4.78;;;2.70;;
67130;SDS011;54051;53.464;49.532;2023-07-31T08:00:10;5.68;;;2.92;;
67130;SDS011;54051;53.464;49.532;2023-07-31T08:02:37;6.22;;;3.22;;
67130;SDS011;54051;53.464;49.532;2023-07-31T08:05:04;5.95;;;3.00;;
67130;SDS011;54051;53.464;49.532;2023-07-31T08:07:30;6.15;;;3.30;;
67130;SDS011;54051;53.464;49.532;2023-07-31T08:09:56;5.10;;;2.95;;
67130;SDS011;54051;53.464;49.532;2023-07-31T08:12:22;5.97;;;2.90;;
67130;SDS011;54051;53.464;49.532;2023-07-31T08:14:48;5.03;;;2.90;;
67130;SDS011;54051;53.464;49.532;2023-07-31T08:17:14;4.65;;;3.00;;
67130;SDS011;54051;53.464;49.532;2023-07-31T08:19:40;5.13;;;3.00;;
67130;SDS011;54051;53.464;49.532;2023-07-31T08:22:06;5.65;;;3.30;;
67130;SDS011;54051;53.464;49.532;2023-07-31T08:24:32;6.15;;;2.88;;
67130;SDS011;54051;53.464;49.532;2023-07-31T08:26:58;5.22;;;3.22;;
67130;SDS011;54051;53.464;49.532;2023-07-31T08:29:24;6.20;;;2.97;;
67130;SDS011;54051;53.464;49.532;2023-07-31T08:31:50;5.80;;;3.00;;
67130;SDS011;54051;53.464;49.532;2023-07-31T08:34:16;5.53;;;2.90;;
67130;SDS011;54051;53.464;49.532;2023-07-31T08:36:42;5.55;;;3.38;;
67130;SDS011;54051;53.464;49.532;2023-07-31T08:39:08;5.63;;;3.22;;
67130;SDS011;54051;53.464;49.532;2023-07-31T08:41:38;5.90;;;3.13;;
67130;SDS011;54051;53.464;49.532;2023-07-31T08:44:05;4.88;;;3.08;;
67130;SDS011;54051;53.464;49.532;2023-07-31T08:46:33;5.20;;;3.30;;
67130;SDS011;54051;53.464;49.532;2023-07-31T08:49:00;6.97;;;3.28;;
67130;SDS011;54051;53.464;49.532;2023-07-31T08:51:29;5.97;;;2.90;;
67130;SDS011;54051;53.464;49.532;2023-07-31T08:53:55;5.18;;;3.00;;
67130;SDS011;54051;53.464;49.532;2023-07-31T08:56:22;7.30;;;3.15;;
67130;SDS011;54051;53.464;49.532;2023-07-31T08:58:51;5.68;;;3.55;;
67130;SDS011;54051;53.464;49.532;2023-07-31T09:01:17;6.28;;;3.70;;
67130;SDS011;54051;53.464;49.532;2023-07-31T09:03:43;7.78;;;3.70;;
67130;SDS011;54051;53.464;49.532;2023-07-31T09:06:10;6.40;;;3.50;;
67130;SDS011;54051;53.464;49.532;2023-07-31T09:08:38;5.47;;;3.40;;
67130;SDS011;54051;53.464;49.532;2023-07-31T09:11:07;5.10;;;3.38;;
67130;SDS011;54051;53.464;49.532;2023-07-31T09:13:33;6.28;;;3.70;;
67130;SDS011;54051;53.464;49.532;2023-07-31T09:15:59;6.85;;;3.92;;
67130;SDS011;54051;53.464;49.532;2023-07-31T09:18:25;7.70;;;3.72;;
67130;SDS011;54051;53.464;49.532;2023-07-31T09:21:01;5.95;;;3.15;;
67130;SDS011;54051;53.464;49.532;2023-07-31T09:23:40;6.38;;;3.40;;
67130;SDS011;54051;53.464;49.532;2023-07-31T09:26:10;7.57;;;3.35;;
67130;SDS011;54051;53.464;49.532;2023-07-31T09:33:28;10.52;;;3.65;;
67130;SDS011;54051;53.464;49.532;2023-07-31T09:35:54;6.18;;;3.35;;
67130;SDS011;54051;53.464;49.532;2023-07-31T09:38:20;7.90;;;3.25;;
67130;SDS011;54051;53.464;49.532;2023-07-31T09:40:47;6.45;;;3.63;;
67130;SDS011;54051;53.464;49.532;2023-07-31T09:43:16;7.57;;;3.33;;
67130;SDS011;54051;53.464;49.532;2023-07-31T09:45:44;7.47;;;4.22;;
67130;SDS011;54051;53.464;49.532;2023-07-31T09:48:12;6.68;;;3.42;;
67130;SDS011;54051;53.464;49.532;2023-07-31T09:50:42;5.05;;;3.40;;
67130;SDS011;54051;53.464;49.532;2023-07-31T09:53:10;8.18;;;3.60;;
67130;SDS011;54051;53.464;49.532;2023-07-31T09:55:36;5.43;;;3.20;;
67130;SDS011;54051;53.464;49.532;2023-07-31T09:58:04;6.07;;;3.45;;
67130;SDS011;54051;53.464;49.532;2023-07-31T10:00:35;5.43;;;3.03;;
67130;SDS011;54051;53.464;49.532;2023-07-31T10:03:05;6.63;;;3.08;;
67130;SDS011;54051;53.464;49.532;2023-07-31T10:08:14;5.88;;;3.45;;
67130;SDS011;54051;53.464;49.532;2023-07-31T10:10:41;7.32;;;3.67;;
67130;SDS011;54051;53.464;49.532;2023-07-31T10:13:09;7.15;;;3.60;;
67130;SDS011;54051;53.464;49.532;2023-07-31T10:15:35;6.25;;;3.40;;
67130;SDS011;54051;53.464;49.532;2023-07-31T10:22:54;8.60;;;3.22;;
67130;SDS011;54051;53.464;49.532;2023-07-31T10:25:22;5.72;;;3.35;;
67130;SDS011;54051;53.464;49.532;2023-07-31T10:27:48;5.70;;;3.40;;
67130;SDS011;54051;53.464;49.532;2023-07-31T10:30:15;6.07;;;3.28;;
67130;SDS011;54051;53.464;49.532;2023-07-31T10:32:44;6.05;;;3.10;;
67130;SDS011;54051;53.464;49.532;2023-07-31T10:35:11;6.05;;;3.00;;
67130;SDS011;54051;53.464;49.532;2023-07-31T10:37:41;8.38;;;3.42;;
67130;SDS011;54051;53.464;49.532;2023-07-31T10:40:13;5.55;;;3.10;;
67130;SDS011;54051;53.464;49.532;2023-07-31T10:42:46;4.95;;;2.70;;
67130;SDS011;54051;53.464;49.532;2023-07-31T10:45:14;5.53;;;3.40;;
67130;SDS011;54051;53.464;49.532;2023-07-31T10:47:59;7.43;;;3.20;;
67130;SDS011;54051;53.464;49.532;2023-07-31T10:50:27;6.65;;;3.00;;
67130;SDS011;54051;53.464;49.532;2023-07-31T10:52:55;8.85;;;3.47;;
67130;SDS011;54051;53.464;49.532;2023-07-31T10:57:55;9.38;;;4.00;;
67130;SDS011;54051;53.464;49.532;2023-07-31T11:00:24;7.53;;;3.42;;
67130;SDS011;54051;53.464;49.532;2023-07-31T11:08:14;7.55;;;2.70;;
67130;SDS011;54051;53.464;49.532;2023-07-31T11:10:42;5.30;;;2.85;;
67130;SDS011;54051;53.464;49.532;2023-07-31T11:13:09;7.75;;;2.60;;
67130;SDS011;54051;53.464;49.532;2023-07-31T11:20:36;5.38;;;3.05;;
67130;SDS011;54051;53.464;49.532;2023-07-31T11:23:07;5.18;;;2.70;;
67130;SDS011;54051;53.464;49.532;2023-07-31T11:25:35;6.55;;;2.78;;
67130;SDS011;54051;53.464;49.532;2023-07-31T11:28:06;6.68;;;3.03;;
67130;SDS011;54051;53.464;49.532;2023-07-31T11:30:33;6.72;;;2.97;;
67130;SDS011;54051;53.464;49.532;2023-07-31T11:33:04;7.15;;;3.47;;
67130;SDS011;54051;53.464;49.532;2023-07-31T11:35:32;6.75;;;3.00;;
67130;SDS011;54051;53.464;49.532;2023-07-31T11:37:59;5.45;;;3.03;;
67130;SDS011;54051;53.464;49.532;2023-07-31T11:40:26;7.28;;;3.47;;
67130;SDS011;54051;53.464;49.532;2023-07-31T11:42:56;6.03;;;3.20;;
67130;SDS011;54051;53.464;49.532;2023-07-31T11:45:24;8.05;;;3.30;;
67130;SDS011;54051;53.464;49.532;2023-07-31T11:47:55;6.65;;;3.00;;
67130;SDS011;54051;53.464;49.532;2023-07-31T11:50:22;7.10;;;3.13;;
67130;SDS011;54051;53.464;49.532;2023-07-31T11:52:52;5.65;;;3.30;;
67130;SDS011;54051;53.464;49.532;2023-07-31T11:55:23;6.00;;;3.13;;
67130;SDS011;54051;53.464;49.532;2023-07-31T11:57:49;7.25;;;3.67;;
67130;SDS011;54051;53.464;49.532;2023-07-31T12:00:16;8.60;;;4.05;;
67130;SDS011;54051;53.464;49.532;2023-07-31T12:02:43;6.40;;;3.42;;
67130;SDS011;54051;53.464;49.532;2023-07-31T12:05:10;8.20;;;3.92;;
67130;SDS011;54051;53.464;49.532;2023-07-31T12:07:50;8.57;;;3.78;;
67130;SDS011;54051;53.464;49.532;2023-07-31T12:13:19;7.65;;;4.75;;
67130;SDS011;54051;53.464;49.532;2023-07-31T12:15:45;7.75;;;4.53;;
67130;SDS011;54051;53.464;49.532;2023-07-31T12:20:45;9.13;;;4.65;;
67130;SDS011;54051;53.464;49.532;2023-07-31T12:25:42;8.63;;;4.10;;
67130;SDS011;54051;53.464;49.532;2023-07-31T12:28:08;8.68;;;3.60;;
67130;SDS011;54051;53.464;49.532;2023-07-31T12:30:37;8.02;;;3.30;;
67130;SDS011;54051;53.464;49.532;2023-07-31T12:33:05;7.22;;;3.30;;
67130;SDS011;54051;53.464;49.532;2023-07-31T12:35:41;7.75;;;3.40;;
67130;SDS011;54051;53.464;49.532;2023-07-31T12:38:10;8.48;;;3.67;;
67130;SDS011;54051;53.464;49.532;2023-07-31T12:40:38;8.15;;;3.65;;
67130;SDS011;54051;53.464;49.532;2023-07-31T12:43:05;11.32;;;4.28;;
67130;SDS011;54051;53.464;49.532;2023-07-31T12:45:34;8.80;;;4.20;;
67130;SDS011;54051;53.464;49.532;2023-07-31T12:48:01;8.27;;;3.80;;
67130;SDS011;54051;53.464;49.532;2023-07-31T12:50:27;8.45;;;3.85;;
67130;SDS011;54051;53.464;49.532;2023-07-31T12:52:53;9.32;;;4.10;;
67130;SDS011;54051;53.464;49.532;2023-07-31T12:55:21;10.90;;;4.63;;
67130;SDS011;54051;53.464;49.532;2023-07-31T12:57:47;11.25;;;4.63;;
67130;SDS011;54051;53.464;49.532;2023-07-31T13:00:13;9.60;;;4.47;;
67130;SDS011;54051;53.464;49.532;2023-07-31T13:02:39;11.05;;;4.30;;
67130;SDS011;54051;53.464;49.532;2023-07-31T13:05:06;9.52;;;4.40;;
67130;SDS011;54051;53.464;49.532;2023-07-31T13:07:32;8.52;;;4.25;;
67130;SDS011;54051;53.464;49.532;2023-07-31T13:09:58;12.10;;;3.83;;
67130;SDS011;54051;53.464;49.532;2023-07-31T13:12:24;10.32;;;4.38;;
67130;SDS011;54051;53.464;49.532;2023-07-31T13:14:50;6.00;;;3.13;;
67130;SDS011;54051;53.464;49.532;2023-07-31T13:17:17;6.07;;;3.10;;
67130;SDS011;54051;53.464;49.532;2023-07-31T13:19:44;6.40;;;3.33;;
67130;SDS011;54051;53.464;49.532;2023-07-31T13:22:10;6.45;;;3.50;;
67130;SDS011;54051;53.464;49.532;2023-07-31T13:24:36;7.90;;;3.60;;
67130;SDS011;54051;53.464;49.532;2023-07-31T13:27:02;6.28;;;3.90;;
67130;SDS011;54051;53.464;49.532;2023-07-31T13:29:28;7.43;;;3.35;;
67130;SDS011;54051;53.464;49.532;2023-07-31T13:31:55;6.00;;;3.28;;
67130;SDS011;54051;53.464;49.532;2023-07-31T13:34:21;7.70;;;3.63;;
67130;SDS011;54051;53.464;49.532;2023-07-31T13:36:47;8.25;;;3.42;;
67130;SDS011;54051;53.464;49.532;2023-07-31T13:39:13;6.72;;;3.70;;
67130;SDS011;54051;53.464;49.532;2023-07-31T13:46:31;7.45;;;3.60;;
67130;SDS011;54051;53.464;49.532;2023-07-31T13:49:00;6.07;;;3.40;;
67130;SDS011;54051;53.464;49.532;2023-07-31T13:51:27;5.65;;;3.30;;
67130;SDS011;54051;53.464;49.532;2023-07-31T13:53:53;6.70;;;3.40;;
67130;SDS011;54051;53.464;49.532;2023-07-31T13:56:19;9.32;;;3.60;;
67130;SDS011;54051;53.464;49.532;2023-07-31T13:58:45;6.57;;;3.40;;
67130;SDS011;54051;53.464;49.532;2023-07-31T14:01:11;6.68;;;3.30;;
67130;SDS011;54051;53.464;49.532;2023-07-31T14:03:37;6.68;;;3.45;;
67130;SDS011;54051;53.464;49.532;2023-07-31T14:06:03;6.50;;;3.55;;
67130;SDS011;54051;53.464;49.532;2023-07-31T14:08:29;7.57;;;3.45;;
67130;SDS011;54051;53.464;49.532;2023-07-31T14:10:55;6.47;;;3.25;;
67130;SDS011;54051;53.464;49.532;2023-07-31T14:13:21;6.97;;;3.60;;
67130;SDS011;54051;53.464;49.532;2023-07-31T14:15:47;6.50;;;3.28;;
67130;SDS011;54051;53.464;49.532;2023-07-31T14:18:14;6.55;;;3.10;;
67130;SDS011;54051;53.464;49.532;2023-07-31T14:20:40;7.05;;;3.50;;
67130;SDS011;54051;53.464;49.532;2023-07-31T14:23:06;9.65;;;3.38;;
67130;SDS011;54051;53.464;49.532;2023-07-31T14:25:32;5.65;;;3.30;;
67130;SDS011;54051;53.464;49.532;2023-07-31T14:27:57;8.00;;;3.70;;
67130;SDS011;54051;53.464;49.532;2023-07-31T14:30:23;7.22;;;3.40;;
67130;SDS011;54051;53.464;49.532;2023-07-31T14:32:49;7.40;;;3.78;;
67130;SDS011;54051;53.464;49.532;2023-07-31T14:35:15;6.78;;;3.70;;
67130;SDS011;54051;53.464;49.532;2023-07-31T14:37:43;7.57;;;3.72;;
67130;SDS011;54051;53.464;49.532;2023-07-31T14:40:10;8.05;;;3.45;;
67130;SDS011;54051;53.464;49.532;2023-07-31T14:42:38;7.18;;;3.58;;
67130;SDS011;54051;53.464;49.532;2023-07-31T14:45:05;8.57;;;3.70;;
67130;SDS011;54051;53.464;49.532;2023-07-31T14:47:33;5.95;;;3.50;;
67130;SDS011;54051;53.464;49.532;2023-07-31T14:49:59;6.95;;;3.78;;
67130;SDS011;54051;53.464;49.532;2023-07-31T14:54:51;6.38;;;3.55;;
67130;SDS011;54051;53.464;49.532;2023-07-31T14:59:44;8.48;;;3.90;;
67130;SDS011;54051;53.464;49.532;2023-07-31T15:02:14;7.40;;;4.10;;
67130;SDS011;54051;53.464;49.532;2023-07-31T15:04:40;6.70;;;3.88;;
67130;SDS011;54051;53.464;49.532;2023-07-31T15:07:07;6.90;;;3.95;;
67130;SDS011;54051;53.464;49.532;2023-07-31T15:09:33;8.10;;;3.80;;
67130;SDS011;54051;53.464;49.532;2023-07-31T15:11:59;8.10;;;4.03;;
67130;SDS011;54051;53.464;49.532;2023-07-31T15:14:25;8.23;;;4.28;;
67130;SDS011;54051;53.464;49.532;2023-07-31T15:16:52;8.45;;;4.00;;
67130;SDS011;54051;53.464;49.532;2023-07-31T15:19:18;6.53;;;3.75;;
67130;SDS011;54051;53.464;49.532;2023-07-31T15:21:44;7.00;;;3.75;;
67130;SDS011;54051;53.464;49.532;2023-07-31T15:24:11;7.85;;;3.90;;